Time;durP1;ratioP1;P1;durP2;ratioP2;P2;SDS_P1;SDS_P2;PMS_P1;PMS_P2;Temp;Humidity;BMP_temperature;BMP_pressure;BME280_temperature;BME280_humidity;BME280_pressure;Samples;Min_cycle;Max_cycle;Signal;HPM_P1;HPM_P2
2022/07/13 00:00:08;;;;;;;2.25;0.82;;;;;;;31.27;33.35;101948.34;6186995;23;20016;-43
2022/07/13 00:02:37;;;;;;;2.88;1.05;;;;;;;31.14;33.21;101942.16;6185576;23;20005;-47
2022/07/13 00:05:06;;;;;;;1.75;0.70;;;;;;;31.26;33.15;101953.63;6185377;23;20048;-44
2022/07/13 00:07:36;;;;;;;2.42;0.80;;;;;;;31.16;33.28;101947.47;6187133;23;20333;-44
2022/07/13 00:10:05;;;;;;;3.42;0.80;;;;;;;31.06;33.63;101952.75;6184784;23;20005;-44
2022/07/13 00:12:34;;;;;;;4.50;0.70;;;;;;;31.02;33.91;101935.09;6186867;23;20101;-56
2022/07/13 00:15:02;;;;;;;2.15;1.00;;;;;;;31.06;33.64;101939.50;6185421;23;20005;-43
2022/07/13 00:17:31;;;;;;;4.95;1.00;;;;;;;31.13;33.39;101939.47;6186850;23;20013;-44
2022/07/13 00:19:59;;;;;;;2.28;0.90;;;;;;;31.08;33.65;101918.28;6160737;23;20009;-43
2022/07/13 00:22:28;;;;;;;3.03;0.98;;;;;;;31.12;33.46;101921.81;6186790;23;20005;-46
2022/07/13 00:24:57;;;;;;;9.02;1.20;;;;;;;31.07;33.53;101916.53;6187010;23;20001;-47
2022/07/13 00:27:26;;;;;;;2.65;0.88;;;;;;;31.06;33.78;101915.66;6186721;23;20100;-48
2022/07/13 00:29:54;;;;;;;1.55;0.82;;;;;;;31.10;33.38;101921.81;6186446;23;20000;-46
2022/07/13 00:32:23;;;;;;;1.98;0.80;;;;;;;31.04;33.69;101911.22;6186869;23;20338;-45
2022/07/13 00:34:51;;;;;;;4.90;1.02;;;;;;;31.02;33.22;101911.25;6185087;23;20451;-44
2022/07/13 00:37:20;;;;;;;8.40;0.93;;;;;;;31.05;33.40;101907.69;6186157;23;20009;-43
2022/07/13 00:39:48;;;;;;;1.75;0.70;;;;;;;31.07;33.65;101912.13;6186698;23;20001;-46
2022/07/13 00:42:17;;;;;;;3.00;0.75;;;;;;;31.06;33.15;101907.72;6206059;23;20455;-55
2022/07/13 00:44:45;;;;;;;1.42;0.70;;;;;;;31.02;33.61;101907.72;6247009;23;20364;-48
2022/07/13 00:47:15;;;;;;;5.50;0.90;;;;;;;30.90;33.38;101898.03;6219368;23;20035;-48
2022/07/13 00:49:43;;;;;;;4.43;0.80;;;;;;;30.90;33.48;101909.50;6246991;23;20008;-45
2022/07/13 00:52:12;;;;;;;3.03;1.02;;;;;;;30.90;33.55;101906.84;6246555;23;20000;-43
2022/07/13 00:54:44;;;;;;;3.15;0.90;;;;;;;30.89;33.69;101907.72;6246563;23;20436;-45
2022/07/13 00:57:14;;;;;;;2.70;0.70;;;;;;;30.89;33.45;101917.47;6246359;23;20008;-46
2022/07/13 00:59:43;;;;;;;1.65;0.70;;;;;;;30.84;33.37;101904.22;6246007;23;20022;-45
2022/07/13 01:02:12;;;;;;;1.55;0.77;;;;;;;30.92;33.28;101912.16;6246512;23;20004;-44
2022/07/13 01:04:41;;;;;;;4.88;1.00;;;;;;;30.83;33.97;101913.06;6246901;23;20436;-44
2022/07/13 01:07:09;;;;;;;1.00;0.70;;;;;;;30.82;33.95;101902.44;6246298;23;20008;-51
2022/07/13 01:09:38;;;;;;;1.63;0.80;;;;;;;30.77;33.98;101898.06;6246177;23;20004;-52
2022/07/13 01:12:07;;;;;;;3.20;0.82;;;;;;;30.77;33.97;101905.09;6245858;23;20004;-44
2022/07/13 01:14:37;;;;;;;1.63;0.90;;;;;;;30.71;33.78;101891.84;6244382;23;20423;-49
2022/07/13 01:17:06;;;;;;;1.92;0.70;;;;;;;30.73;34.04;101900.69;6246458;23;20054;-49
2022/07/13 01:19:35;;;;;;;1.88;0.70;;;;;;;30.46;33.93;101876.84;6245872;23;20035;-44
2022/07/13 01:22:04;;;;;;;4.00;1.00;;;;;;;30.53;34.29;101888.31;6246267;23;20034;-48
2022/07/13 01:24:34;;;;;;;1.95;0.73;;;;;;;30.49;34.22;101880.38;6219581;23;20323;-45
2022/07/13 01:27:03;;;;;;;2.95;1.00;;;;;;;30.63;33.88;101893.66;6246328;23;20007;-46
2022/07/13 01:29:32;;;;;;;2.15;0.77;;;;;;;30.50;33.81;101884.78;6245917;23;20000;-44
2022/07/13 01:32:00;;;;;;;1.85;0.90;;;;;;;30.46;34.17;101886.56;6246457;23;19996;-46
2022/07/13 01:34:29;;;;;;;1.40;0.98;;;;;;;30.47;34.11;101889.19;6246046;23;20023;-45
2022/07/13 01:36:59;;;;;;;1.58;0.82;;;;;;;30.56;33.97;101898.94;6246322;23;20008;-45
2022/07/13 01:39:27;;;;;;;2.17;0.80;;;;;;;30.43;34.42;101887.44;6245791;23;20004;-46
2022/07/13 01:41:56;;;;;;;6.60;1.08;;;;;;;30.34;34.39;101882.13;6246153;23;20027;-47
2022/07/13 01:44:25;;;;;;;2.00;0.80;;;;;;;30.40;34.40;101903.31;6246546;23;20042;-51
2022/07/13 01:46:53;;;;;;;1.88;0.80;;;;;;;30.36;34.35;101890.09;6219463;23;20030;-45
2022/07/13 01:49:22;;;;;;;2.85;0.63;;;;;;;30.34;34.54;101891.84;6246102;23;20502;-46
2022/07/13 01:51:50;;;;;;;5.47;0.90;;;;;;;30.16;34.89;101883.88;6245787;23;20015;-52
2022/07/13 01:54:19;;;;;;;2.17;0.73;;;;;;;30.16;34.56;101886.53;6246229;23;20007;-47
2022/07/13 01:56:47;;;;;;;1.38;0.93;;;;;;;30.09;34.92;101884.78;6219812;23;20029;-44
2022/07/13 01:59:16;;;;;;;3.42;0.90;;;;;;;30.06;34.74;101876.84;6245751;23;20083;-43
2022/07/13 02:01:46;;;;;;;2.03;0.80;;;;;;;30.07;34.83;101878.59;6245295;23;20004;-49
2022/07/13 02:04:14;;;;;;;4.45;0.85;;;;;;;30.02;34.71;101869.75;6245562;23;20086;-46
2022/07/13 02:06:42;;;;;;;3.85;1.75;;;;;;;30.02;34.85;101864.47;6245871;23;20029;-48
2022/07/13 02:09:11;;;;;;;0.80;0.80;;;;;;;30.01;34.88;101873.28;6246075;23;20000;-44
2022/07/13 02:11:38;;;;;;;0.98;0.70;;;;;;;29.97;34.58;101863.56;6246155;23;20004;-44
2022/07/13 02:14:08;;;;;;;1.33;0.88;;;;;;;30.05;34.43;101874.16;6246160;23;20003;-45
2022/07/13 02:16:36;;;;;;;1.70;0.60;;;;;;;29.97;34.90;101863.56;6245452;23;20004;-48
2022/07/13 02:19:05;;;;;;;2.08;0.80;;;;;;;29.95;34.41;101870.63;6245907;23;20004;-47
2022/07/13 02:21:33;;;;;;;2.30;0.85;;;;;;;29.92;34.73;101871.47;6246239;23;20075;-45
2022/07/13 02:24:02;;;;;;;2.17;0.70;;;;;;;29.76;34.94;101865.28;6245856;23;20458;-47
2022/07/13 02:26:30;;;;;;;3.28;0.80;;;;;;;29.74;34.88;101871.44;6246050;23;20007;-47
2022/07/13 02:28:59;;;;;;;0.98;0.80;;;;;;;29.75;34.68;101871.44;6245821;23;20035;-49
2022/07/13 02:31:27;;;;;;;1.70;1.02;;;;;;;29.75;35.03;101873.19;6245532;23;20012;-46
2022/07/13 02:33:56;;;;;;;1.05;0.70;;;;;;;29.80;34.78;101869.69;6245762;23;20001;-45
2022/07/13 02:36:24;;;;;;;1.73;0.82;;;;;;;29.78;34.77;101859.97;6244158;23;20051;-46
2022/07/13 02:38:52;;;;;;;2.30;0.80;;;;;;;29.76;34.43;101861.75;6246014;23;20035;-46
2022/07/13 02:41:21;;;;;;;2.17;0.52;;;;;;;29.73;34.45;101856.44;6245674;23;20000;-45
2022/07/13 02:43:49;;;;;;;2.00;0.88;;;;;;;29.82;34.38;101861.75;6244179;23;20023;-56
2022/07/13 02:46:18;;;;;;;1.00;0.85;;;;;;;29.71;34.69;101859.09;6245721;23;20008;-48
2022/07/13 02:48:46;;;;;;;1.10;0.77;;;;;;;29.76;34.47;101867.03;6245276;23;20432;-44
2022/07/13 02:51:15;;;;;;;1.77;0.80;;;;;;;29.72;34.35;101852.94;6245447;23;20004;-44
2022/07/13 02:53:44;;;;;;;2.00;0.75;;;;;;;29.60;34.81;101856.41;6245368;23;20004;-45
2022/07/13 02:56:12;;;;;;;2.22;0.82;;;;;;;29.64;34.23;101849.34;6245298;23;20015;-53
2022/07/13 02:58:41;;;;;;;1.45;0.60;;;;;;;29.70;34.35;101852.03;6218997;23;20083;-53
2022/07/13 03:01:10;;;;;;;2.35;0.93;;;;;;;29.70;34.43;101846.75;6245792;23;19996;-53
2022/07/13 03:03:38;;;;;;;1.10;0.70;;;;;;;29.56;34.34;101834.38;6245770;23;20012;-47
2022/07/13 03:06:07;;;;;;;2.25;0.95;;;;;;;29.45;34.74;101854.63;6245705;23;20362;-51
2022/07/13 03:08:39;;;;;;;2.90;0.60;;;;;;;29.48;34.72;101854.59;6245573;23;20004;-50
2022/07/13 03:11:07;;;;;;;4.65;1.00;;;;;;;29.47;34.96;101859.91;6245390;23;20023;-44
2022/07/13 03:13:36;;;;;;;1.17;0.73;;;;;;;29.44;34.77;101859.88;6246018;23;20071;-52
2022/07/13 03:16:05;;;;;;;2.20;0.73;;;;;;;29.43;34.74;101859.00;6245290;23;20424;-48
2022/07/13 03:18:33;;;;;;;2.70;0.80;;;;;;;29.45;34.91;101859.00;6244128;23;20005;-44
2022/07/13 03:21:02;;;;;;;2.00;0.80;;;;;;;29.40;34.78;101866.91;6219415;23;20004;-44
2022/07/13 03:23:30;;;;;;;0.80;0.63;;;;;;;29.32;34.85;101860.66;6245656;23;20336;-44
2022/07/13 03:25:59;;;;;;;3.78;1.08;;;;;;;29.37;34.55;101857.19;6245387;23;20011;-45
2022/07/13 03:28:27;;;;;;;2.08;1.00;;;;;;;29.34;34.75;101859.81;6245462;23;20495;-44
2022/07/13 03:30:56;;;;;;;1.70;0.98;;;;;;;29.41;34.64;101864.28;6218487;23;20083;-45
2022/07/13 03:33:24;;;;;;;1.58;1.00;;;;;;;29.35;34.62;101850.16;6245726;23;20305;-49
2022/07/13 03:35:53;;;;;;;1.75;0.77;;;;;;;29.35;34.75;101850.16;6245537;23;20054;-47
2022/07/13 03:38:22;;;;;;;2.47;0.95;;;;;;;29.35;34.85;101853.69;6246063;23;20004;-57
2022/07/13 03:40:50;;;;;;;4.03;1.40;;;;;;;29.22;35.08;101847.44;6245742;23;20395;-44
2022/07/13 03:43:19;;;;;;;4.13;1.35;;;;;;;29.28;34.84;101854.50;6245572;23;20027;-46
2022/07/13 03:45:48;;;;;;;3.20;1.23;;;;;;;29.28;34.68;101851.00;6245494;23;20012;-44
2022/07/13 03:48:17;;;;;;;1.95;0.75;;;;;;;29.22;34.88;101855.34;6246875;23;20151;-45
2022/07/13 03:50:46;;;;;;;5.10;0.80;;;;;;;29.17;34.74;101851.81;6247065;23;20010;-44
2022/07/13 03:53:15;;;;;;;13.85;2.10;;;;;;;29.11;34.68;101851.78;6247621;23;20430;-44
2022/07/13 03:55:44;;;;;;;3.85;0.93;;;;;;;29.05;35.01;101857.03;6195928;23;20007;-47
2022/07/13 03:58:13;;;;;;;2.03;1.08;;;;;;;29.07;34.75;101856.16;6247321;23;20340;-49
2022/07/13 04:00:42;;;;;;;5.07;0.98;;;;;;;29.04;34.60;101853.47;6246893;23;20015;-44
2022/07/13 04:03:10;;;;;;;1.83;0.90;;;;;;;29.04;34.76;101842.91;6247280;23;20008;-48
2022/07/13 04:05:39;;;;;;;2.45;0.60;;;;;;;29.08;34.29;101849.13;6247007;23;20008;-44
2022/07/13 04:08:07;;;;;;;1.70;0.80;;;;;;;29.03;34.50;101849.09;6246594;23;20015;-45
2022/07/13 04:10:36;;;;;;;8.48;1.23;;;;;;;28.93;34.60;101844.63;6246706;23;20004;-44
2022/07/13 04:13:05;;;;;;;2.20;0.85;;;;;;;28.99;34.53;101843.78;6246826;23;20083;-47
2022/07/13 04:15:33;;;;;;;2.90;1.00;;;;;;;28.95;34.76;101849.06;6246776;23;20008;-44
2022/07/13 04:18:02;;;;;;;2.45;1.20;;;;;;;28.91;34.88;101847.28;6247345;23;20482;-44
2022/07/13 04:20:30;;;;;;;2.50;0.88;;;;;;;28.86;34.85;101841.06;6246621;23;20027;-43
2022/07/13 04:23:00;;;;;;;2.90;0.70;;;;;;;28.74;34.90;101836.59;6248206;23;20004;-44
2022/07/13 04:25:28;;;;;;;2.35;1.05;;;;;;;28.65;35.03;101839.16;6246881;23;20000;-50
2022/07/13 04:27:57;;;;;;;2.13;1.02;;;;;;;28.61;35.10;101846.19;6246801;23;20000;-54
2022/07/13 04:30:25;;;;;;;2.35;0.80;;;;;;;28.74;34.75;101852.44;6246810;23;20336;-44
2022/07/13 04:32:54;;;;;;;1.77;0.90;;;;;;;28.72;34.84;101854.13;6246695;23;20074;-56
2022/07/13 04:35:22;;;;;;;1.80;0.90;;;;;;;28.76;34.78;101849.81;6247300;23;20031;-44
2022/07/13 04:37:51;;;;;;;3.95;0.88;;;;;;;28.77;34.61;101849.81;6245220;23;20038;-47
2022/07/13 04:40:20;;;;;;;3.95;0.98;;;;;;;28.61;34.54;101846.19;6247211;23;20004;-56
2022/07/13 04:42:48;;;;;;;3.75;1.20;;;;;;;28.66;34.72;101862.91;6219903;23;20012;-46
2022/07/13 04:45:18;;;;;;;4.20;0.98;;;;;;;28.57;34.99;101857.56;6247244;23;20428;-46
2022/07/13 04:47:47;;;;;;;2.63;1.05;;;;;;;28.60;34.72;101852.31;6246668;23;20335;-44
2022/07/13 04:50:15;;;;;;;1.25;0.65;;;;;;;28.68;34.63;101859.41;6246659;23;20138;-45
2022/07/13 04:52:44;;;;;;;2.88;0.90;;;;;;;28.48;34.92;101833.72;6246719;23;20004;-44
2022/07/13 04:55:13;;;;;;;3.28;1.20;;;;;;;28.38;35.09;101853.88;6246503;23;20015;-45
2022/07/13 04:57:41;;;;;;;3.03;0.98;;;;;;;28.43;35.01;101853.94;6246164;23;20012;-45
2022/07/13 05:00:09;;;;;;;4.60;1.10;;;;;;;28.50;34.95;101854.00;6247044;23;20391;-44
2022/07/13 05:02:38;;;;;;;2.88;0.90;;;;;;;28.56;34.91;101858.44;6247050;23;20430;-50
2022/07/13 05:05:07;;;;;;;2.10;0.93;;;;;;;28.51;35.06;101860.16;6246580;23;20497;-56
2022/07/13 05:07:35;;;;;;;1.95;1.00;;;;;;;28.46;34.97;101862.75;6246745;23;20501;-51
2022/07/13 05:10:04;;;;;;;3.38;0.77;;;;;;;28.46;35.15;101860.13;6246689;23;20037;-46
2022/07/13 05:12:34;;;;;;;2.08;1.00;;;;;;;28.45;35.13;101852.22;6247092;23;20000;-51
2022/07/13 05:15:02;;;;;;;3.35;1.20;;;;;;;28.27;35.33;101839.72;6219650;23;20004;-45
2022/07/13 05:17:30;;;;;;;7.63;1.00;;;;;;;28.37;35.46;101861.81;6246441;23;20059;-47
2022/07/13 05:19:59;;;;;;;1.75;0.90;;;;;;;28.33;35.39;101847.72;6246393;23;20058;-48
2022/07/13 05:22:28;;;;;;;4.20;1.23;;;;;;;28.30;35.64;101845.91;6220184;23;20284;-46
2022/07/13 05:24:57;;;;;;;6.13;1.13;;;;;;;28.34;35.67;101855.63;6247004;23;20004;-50
2022/07/13 05:27:25;;;;;;;3.78;1.05;;;;;;;28.44;35.77;101850.44;6246743;23;20139;-46
2022/07/13 05:29:54;;;;;;;5.68;1.45;;;;;;;28.48;35.47;101861.03;6245040;23;20027;-44
2022/07/13 05:32:23;;;;;;;6.85;1.10;;;;;;;28.44;35.84;101861.88;6246492;23;20014;-47
2022/07/13 05:34:51;;;;;;;5.60;0.90;;;;;;;28.46;35.79;101859.25;6246221;23;20424;-46
2022/07/13 05:37:19;;;;;;;2.63;0.65;;;;;;;28.53;35.71;101870.75;6245747;23;20462;-45
2022/07/13 05:39:48;;;;;;;4.60;1.08;;;;;;;28.59;35.79;101873.41;6219305;23;20004;-56
2022/07/13 05:42:17;;;;;;;7.50;1.20;;;;;;;28.48;35.73;101874.22;6246640;23;20012;-46
2022/07/13 05:44:45;;;;;;;2.92;1.00;;;;;;;28.54;35.70;101873.38;6246489;23;20004;-45
2022/07/13 05:47:13;;;;;;;1.65;1.00;;;;;;;28.55;36.06;101875.16;6246796;23;20027;-48
2022/07/13 05:49:42;;;;;;;2.90;1.00;;;;;;;28.64;35.92;101876.97;6246417;23;20054;-52
2022/07/13 05:52:10;;;;;;;3.25;0.88;;;;;;;28.63;36.00;101869.94;6246063;23;20072;-44
2022/07/13 05:54:39;;;;;;;1.95;0.80;;;;;;;28.61;36.17;101883.13;6244726;23;20031;-44
2022/07/13 05:57:08;;;;;;;1.77;0.85;;;;;;;28.70;36.22;101884.97;6246477;23;20010;-56
2022/07/13 05:59:36;;;;;;;5.93;1.10;;;;;;;28.71;36.03;101891.97;6245554;23;20004;-44
2022/07/13 06:02:05;;;;;;;1.88;0.90;;;;;;;28.81;36.37;101887.69;6246070;23;20000;-54
2022/07/13 06:04:33;;;;;;;4.78;1.48;;;;;;;28.78;36.43;101883.28;6246317;23;20016;-46
2022/07/13 06:07:02;;;;;;;2.63;1.25;;;;;;;28.72;36.88;101891.09;6246365;23;20301;-54
2022/07/13 06:09:31;;;;;;;1.75;1.00;;;;;;;28.71;36.88;101883.19;6244144;23;20059;-45
2022/07/13 06:12:00;;;;;;;1.15;0.80;;;;;;;28.75;37.43;101888.53;6246511;23;20000;-44
2022/07/13 06:14:28;;;;;;;4.80;1.20;;;;;;;28.77;37.26;101899.13;6245445;23;20004;-50
2022/07/13 06:16:57;;;;;;;4.10;1.73;;;;;;;28.76;37.54;101905.28;6245724;23;20008;-53
2022/07/13 06:19:25;;;;;;;22.50;6.15;;;;;;;28.75;37.12;101883.25;6245474;23;20083;-46
2022/07/13 06:21:55;;;;;;;22.15;6.47;;;;;;;28.90;37.18;101900.06;6246010;23;20382;-46
2022/07/13 06:24:24;;;;;;;18.15;4.68;;;;;;;28.88;37.32;101908.00;6245569;23;20020;-47
2022/07/13 06:26:52;;;;;;;11.35;3.05;;;;;;;28.89;37.57;101907.13;6218906;23;20004;-45
2022/07/13 06:29:20;;;;;;;9.70;2.95;;;;;;;28.90;37.28;101910.63;6245860;23;20014;-47
2022/07/13 06:31:49;;;;;;;4.93;1.63;;;;;;;28.89;38.04;101909.75;6245620;23;20000;-47
2022/07/13 06:34:18;;;;;;;5.32;2.03;;;;;;;28.86;37.76;101901.81;6245590;23;20004;-47
2022/07/13 06:36:46;;;;;;;4.85;1.67;;;;;;;28.93;37.68;101906.28;6245708;23;20003;-44
2022/07/13 06:39:15;;;;;;;3.83;1.35;;;;;;;28.95;37.72;101901.91;6245816;23;20015;-46
2022/07/13 06:41:45;;;;;;;8.95;1.13;;;;;;;28.93;37.77;101906.28;6245605;23;20003;-46
2022/07/13 06:44:14;;;;;;;2.90;1.23;;;;;;;29.02;37.99;101915.13;6246049;23;20008;-51
2022/07/13 06:46:42;;;;;;;2.33;0.95;;;;;;;28.95;38.21;101893.06;6245415;23;20076;-54
2022/07/13 06:49:10;;;;;;;2.40;0.90;;;;;;;28.92;38.57;101891.31;6245338;23;20004;-45
2022/07/13 06:51:38;;;;;;;6.75;1.25;;;;;;;29.11;38.63;101916.06;6245366;23;20016;-51
2022/07/13 06:54:07;;;;;;;3.42;1.10;;;;;;;29.15;38.64;101910.81;6245042;23;20339;-56
2022/07/13 06:56:35;;;;;;;2.85;1.23;;;;;;;29.23;37.85;101909.06;6245271;23;20004;-45
2022/07/13 06:59:04;;;;;;;2.35;0.90;;;;;;;29.41;37.87;101910.97;6245733;23;20000;-44
2022/07/13 07:01:32;;;;;;;3.83;0.80;;;;;;;29.39;37.90;101910.94;6245374;23;20008;-44
2022/07/13 07:04:01;;;;;;;4.55;0.70;;;;;;;29.38;37.83;101909.19;6246338;23;20027;-45
2022/07/13 07:06:29;;;;;;;6.22;0.77;;;;;;;29.40;37.17;101898.63;6245913;23;20031;-44
2022/07/13 07:08:58;;;;;;;3.17;0.77;;;;;;;29.53;36.91;101904.88;6245526;23;20007;-44
2022/07/13 07:11:27;;;;;;;2.08;0.80;;;;;;;29.62;36.71;101909.31;6245842;23;20006;-46
2022/07/13 07:13:55;;;;;;;4.65;1.20;;;;;;;29.64;36.88;101902.25;6245760;23;20012;-44
2022/07/13 07:16:24;;;;;;;11.30;1.00;;;;;;;29.62;37.09;101901.38;6245524;23;20004;-45
2022/07/13 07:18:53;;;;;;;3.75;0.80;;;;;;;29.73;36.50;101907.56;6245410;23;20008;-44
2022/07/13 07:21:21;;;;;;;4.43;0.82;;;;;;;29.80;36.49;101906.69;6246200;23;20420;-45
2022/07/13 07:23:50;;;;;;;3.83;0.70;;;;;;;29.90;36.43;101912.03;6247317;23;20004;-47
2022/07/13 07:26:18;;;;;;;3.50;0.65;;;;;;;29.93;36.21;101912.06;6247350;23;19996;-45
2022/07/13 07:28:47;;;;;;;2.53;0.80;;;;;;;30.03;36.39;101905.91;6247258;23;20011;-47
2022/07/13 07:31:15;;;;;;;1.65;0.80;;;;;;;30.12;35.78;101891.81;6247340;23;20000;-46
2022/07/13 07:33:44;;;;;;;3.65;0.70;;;;;;;30.07;35.70;101875.94;6247296;23;20251;-50
2022/07/13 07:36:12;;;;;;;1.05;0.75;;;;;;;30.20;35.94;101903.28;6247404;23;20008;-47
2022/07/13 07:38:41;;;;;;;4.32;0.98;;;;;;;30.34;35.25;101903.31;6247255;23;20327;-44
2022/07/13 07:41:10;;;;;;;3.63;1.17;;;;;;;30.25;35.98;101898.03;6220629;23;20090;-45
2022/07/13 07:43:39;;;;;;;3.50;0.70;;;;;;;30.31;35.60;101904.19;6247170;23;20023;-44
2022/07/13 07:46:07;;;;;;;4.22;0.60;;;;;;;30.39;35.60;101905.94;6220537;23;20035;-45
2022/07/13 07:48:36;;;;;;;4.32;0.80;;;;;;;30.43;35.34;101907.72;6247137;23;20049;-44
2022/07/13 07:51:05;;;;;;;1.83;0.60;;;;;;;30.46;35.15;101911.25;6247653;23;20019;-48
2022/07/13 07:53:34;;;;;;;10.75;0.88;;;;;;;30.50;35.24;101919.19;6247460;23;20075;-45
2022/07/13 07:56:02;;;;;;;2.03;0.68;;;;;;;30.51;35.88;101908.63;6247136;23;20305;-43
2022/07/13 07:58:29;;;;;;;1.77;0.70;;;;;;;30.63;35.80;101912.19;6247460;23;20036;-54
2022/07/13 08:00:58;;;;;;;2.50;0.50;;;;;;;30.65;34.82;101887.44;6221109;23;20004;-45
2022/07/13 08:03:28;;;;;;;2.45;0.90;;;;;;;30.83;34.77;101914.81;6247289;23;20462;-45
2022/07/13 08:05:57;;;;;;;1.83;0.63;;;;;;;30.83;34.51;101901.56;6246901;23;20013;-48
2022/07/13 08:08:27;;;;;;;1.02;0.50;;;;;;;30.92;34.79;101904.22;6246837;23;20447;-46
2022/07/13 08:10:55;;;;;;;2.63;0.73;;;;;;;30.96;34.78;101900.66;6220403;23;20090;-48
2022/07/13 08:13:24;;;;;;;2.47;0.80;;;;;;;30.96;34.43;101897.13;6246811;23;20027;-49
2022/07/13 08:15:53;;;;;;;4.20;1.02;;;;;;;31.04;34.21;101904.19;6247042;23;20055;-49
2022/07/13 08:18:21;;;;;;;1.67;0.98;;;;;;;31.12;34.31;101892.66;6246628;23;20054;-51
2022/07/13 08:20:50;;;;;;;3.50;0.70;;;;;;;31.10;34.58;101895.31;6246635;23;20028;-48
2022/07/13 08:24:01;;;;;;;3.70;0.77;;;;;;;31.13;34.03;101898.00;6247192;23;20000;-44
2022/07/13 08:26:07;;;;;;;3.40;0.70;;;;;;;31.19;34.03;101895.31;6238080;23;20052;-45
2022/07/13 08:28:35;;;;;;;2.28;0.60;;;;;;;31.15;34.22;101879.44;6246708;23;20008;-50
2022/07/13 08:31:05;;;;;;;1.50;0.60;;;;;;;31.35;34.21;101892.63;6246904;23;20008;-47
2022/07/13 08:39:08;;;;;;;4.13;0.70;;;;;;;31.47;33.93;101889.03;6240350;23;20004;-44
2022/07/13 08:41:36;;;;;;;2.25;0.65;;;;;;;31.52;33.91;101887.25;6246444;23;20027;-48
2022/07/13 08:44:06;;;;;;;1.42;0.63;;;;;;;31.55;33.98;101891.66;6220587;23;20087;-47
2022/07/13 08:46:35;;;;;;;3.08;0.75;;;;;;;31.60;33.99;101895.16;6246500;23;20008;-49
2022/07/13 08:49:05;;;;;;;4.75;0.85;;;;;;;31.64;33.37;101884.53;6246438;23;20004;-46
2022/07/13 08:51:34;;;;;;;1.50;0.90;;;;;;;31.67;33.23;101889.81;6247268;23;20340;-49
2022/07/13 08:54:05;;;;;;;2.72;0.60;;;;;;;31.68;33.46;101888.94;6246477;23;20012;-47
2022/07/13 08:56:35;;;;;;;2.83;0.75;;;;;;;31.73;33.31;101888.94;6246470;23;20412;-45
2022/07/13 08:59:05;;;;;;;2.05;0.40;;;;;;;31.79;33.24;101885.34;6246045;23;20443;-47
2022/07/13 09:01:34;;;;;;;1.92;0.70;;;;;;;31.73;32.57;101878.31;6220327;23;20000;-47
2022/07/13 09:04:03;;;;;;;0.88;0.50;;;;;;;31.77;31.98;101882.72;6246658;23;20308;-51
2022/07/13 09:06:42;;;;;;;2.30;0.90;;;;;;;31.78;31.92;101875.63;6246814;23;20381;-44
2022/07/13 09:09:27;;;;;;;3.92;1.10;;;;;;;31.79;32.12;101861.47;6246591;23;20036;-47
2022/07/13 09:12:10;;;;;;;2.47;0.60;;;;;;;31.89;32.19;101863.22;6247130;23;20003;-47
2022/07/13 09:14:39;;;;;;;1.60;0.60;;;;;;;31.91;31.49;101866.72;6246761;23;20083;-49
2022/07/13 09:17:07;;;;;;;4.72;0.60;;;;;;;31.96;31.68;101870.22;6246146;23;20336;-48
2022/07/13 09:19:39;;;;;;;5.43;0.60;;;;;;;32.00;31.70;101867.53;6246510;23;20000;-48
2022/07/13 09:22:13;;;;;;;0.60;0.50;;;;;;;32.09;31.84;101876.31;6244942;23;20435;-49
2022/07/13 09:24:49;;;;;;;2.83;0.67;;;;;;;32.06;31.43;101878.13;6246911;23;20011;-47
2022/07/13 09:27:18;;;;;;;2.03;0.80;;;;;;;32.08;31.70;101873.69;6246339;23;20423;-45
2022/07/13 09:29:46;;;;;;;5.78;0.70;;;;;;;32.07;31.74;101870.13;6246184;23;20331;-46
2022/07/13 09:32:16;;;;;;;1.83;0.60;;;;;;;32.04;31.81;101864.00;6246803;23;20011;-46
2022/07/13 09:34:48;;;;;;;2.33;0.70;;;;;;;32.22;31.76;101881.53;6246486;23;20027;-55
2022/07/13 09:37:18;;;;;;;1.23;0.77;;;;;;;32.19;31.45;101873.59;6244614;23;20008;-43
2022/07/13 09:40:06;;;;;;;4.63;0.80;;;;;;;32.16;32.01;101879.81;6247155;23;20074;-57
2022/07/13 09:42:40;;;;;;;2.92;0.50;;;;;;;32.19;32.08;101874.47;6245887;23;20016;-50
2022/07/13 09:47:58;;;;;;;3.05;0.65;;;;;;;32.19;32.57;101889.50;6232491;23;20027;-52
2022/07/13 09:50:38;;;;;;;4.85;0.68;;;;;;;32.13;32.45;101891.34;6219410;23;20012;-45
2022/07/13 09:53:27;;;;;;;0.88;0.68;;;;;;;32.24;32.62;101893.94;6247229;23;20004;-54
2022/07/13 09:55:59;;;;;;;2.22;0.80;;;;;;;32.15;32.98;101886.00;6245789;23;20069;-48
2022/07/13 09:58:30;;;;;;;3.55;0.77;;;;;;;32.11;32.74;101894.88;6195110;23;20011;-44
2022/07/13 10:01:01;;;;;;;4.78;0.65;;;;;;;32.16;32.74;101890.44;6246428;23;20067;-51
2022/07/13 10:03:30;;;;;;;1.08;0.60;;;;;;;32.03;33.01;101864.88;6246297;23;20004;-44
2022/07/13 10:06:01;;;;;;;4.15;1.27;;;;;;;32.21;32.78;101891.28;6246434;23;20036;-48
2022/07/13 10:08:30;;;;;;;2.35;0.82;;;;;;;32.28;32.88;101887.69;6246042;23;20000;-47
2022/07/13 10:10:58;;;;;;;5.32;0.93;;;;;;;32.30;32.67;101892.13;6246273;23;20004;-44
2022/07/13 10:13:28;;;;;;;2.75;0.85;;;;;;;32.24;32.51;101893.94;6246082;23;20004;-45
2022/07/13 10:15:56;;;;;;;2.45;0.90;;;;;;;32.27;32.80;101895.69;6219168;23;20058;-50
2022/07/13 10:18:29;;;;;;;4.00;1.00;;;;;;;32.25;32.97;101889.47;6245805;23;20008;-49
2022/07/13 10:21:20;;;;;;;3.17;0.90;;;;;;;32.31;32.74;101897.44;6245501;23;20011;-43
2022/07/13 10:23:49;;;;;;;2.83;1.00;;;;;;;32.15;32.61;101866.56;6238367;23;20004;-55
2022/07/13 10:26:28;;;;;;;1.63;0.75;;;;;;;32.32;32.71;101898.31;6245815;23;20070;-43
2022/07/13 10:29:15;;;;;;;2.15;0.82;;;;;;;32.13;32.46;101859.50;6246111;23;20000;-52
2022/07/13 10:31:43;;;;;;;5.75;0.77;;;;;;;32.33;32.66;101879.72;6246034;23;20004;-46
2022/07/13 10:34:14;;;;;;;4.88;1.00;;;;;;;32.13;33.10;101883.38;6219160;23;20027;-53
2022/07/13 10:37:01;;;;;;;4.18;0.80;;;;;;;32.11;33.14;101890.47;6244435;23;20004;-47
2022/07/13 10:39:30;;;;;;;1.42;0.70;;;;;;;32.26;32.48;101897.47;6245989;23;20004;-50
2022/07/13 10:42:00;;;;;;;8.25;0.88;;;;;;;32.35;32.94;101893.84;6245479;23;20077;-53
2022/07/13 10:44:39;;;;;;;3.92;0.90;;;;;;;32.31;32.84;101892.13;6219289;23;20335;-47
2022/07/13 10:47:09;;;;;;;2.90;0.70;;;;;;;32.40;32.56;101893.84;6244473;23;20012;-47
2022/07/13 10:49:45;;;;;;;3.88;0.70;;;;;;;32.42;32.14;101890.25;6218997;23;20062;-44
2022/07/13 10:52:41;;;;;;;1.17;0.70;;;;;;;32.41;32.08;101884.97;6245958;23;20011;-43
2022/07/13 10:55:23;;;;;;;3.42;0.60;;;;;;;32.49;32.42;101888.44;6244855;23;20034;-45
2022/07/13 10:57:52;;;;;;;3.40;0.80;;;;;;;32.51;31.72;101883.13;6246414;23;20083;-53
2022/07/13 11:00:28;;;;;;;2.60;0.68;;;;;;;32.56;31.49;101891.91;6218642;23;20015;-43
2022/07/13 11:03:07;;;;;;;3.50;0.68;;;;;;;32.69;31.41;101890.03;6220874;23;20332;-44
2022/07/13 11:05:36;;;;;;;2.45;0.80;;;;;;;32.68;30.79;101883.81;6221299;23;20026;-43
2022/07/13 11:08:15;;;;;;;7.97;1.30;;;;;;;32.75;31.23;101886.41;6245655;23;20023;-43
2022/07/13 11:10:44;;;;;;;4.85;0.75;;;;;;;32.67;30.88;101879.41;6246003;23;20019;-43
2022/07/13 11:13:14;;;;;;;1.50;0.60;;;;;;;32.80;31.20;101890.78;6244151;23;20004;-44
2022/07/13 11:16:01;;;;;;;5.60;0.85;;;;;;;32.78;31.36;101889.91;6245097;23;20038;-43
2022/07/13 11:18:34;;;;;;;1.30;0.55;;;;;;;32.79;30.91;101881.03;6218872;23;20015;-44
2022/07/13 11:21:14;;;;;;;4.90;0.82;;;;;;;32.81;30.82;101887.25;6245628;23;20004;-43
2022/07/13 11:26:53;;;;;;;3.20;0.40;;;;;;;32.95;30.96;101881.81;6235305;23;20008;-50
2022/07/13 11:29:50;;;;;;;2.45;0.70;;;;;;;32.97;30.67;101876.47;6240412;23;20015;-43
2022/07/13 11:32:22;;;;;;;3.92;0.63;;;;;;;33.06;30.63;101881.69;6245598;23;20032;-46
2022/07/13 11:34:51;;;;;;;3.25;0.60;;;;;;;33.13;30.34;101880.72;6246020;23;20481;-44
2022/07/13 11:37:28;;;;;;;1.30;0.70;;;;;;;33.23;29.41;101888.59;6193481;23;20011;-44
2022/07/13 11:39:57;;;;;;;10.77;0.85;;;;;;;33.15;29.75;101883.38;6245296;23;20446;-45
2022/07/13 11:42:26;;;;;;;5.22;0.95;;;;;;;33.00;30.08;101880.00;6218719;23;20051;-43
2022/07/13 11:44:54;;;;;;;1.50;0.65;;;;;;;33.22;29.72;101874.41;6219389;23;20309;-43
2022/07/13 11:47:23;;;;;;;3.53;1.05;;;;;;;33.33;29.54;101890.22;6245451;23;20439;-43